sensor_id;sensor_type;location;lat;lon;timestamp;pressure;altitude;pressure_sealevel;temperature;humidity
21574;BME280;10948;48.706;9.258;2023-04-26T00:00:41;97802.63;;;9.45;100.00
21574;BME280;10948;48.706;9.258;2023-04-26T00:03:06;97794.06;;;9.43;100.00
21574;BME280;10948;48.706;9.258;2023-04-26T00:05:32;97803.97;;;9.37;100.00
21574;BME280;10948;48.706;9.258;2023-04-26T00:07:57;97802.56;;;9.31;100.00
21574;BME280;10948;48.706;9.258;2023-04-26T00:10:23;97806.63;;;9.35;100.00
21574;BME280;10948;48.706;9.258;2023-04-26T00:12:48;97804.28;;;9.15;100.00
21574;BME280;10948;48.706;9.258;2023-04-26T00:15:14;97810.50;;;9.28;100.00
21574;BME280;10948;48.706;9.258;2023-04-26T00:17:39;97798.44;;;9.27;100.00
21574;BME280;10948;48.706;9.258;2023-04-26T00:20:05;97799.19;;;9.29;100.00
21574;BME280;10948;48.706;9.258;2023-04-26T00:22:32;97803.63;;;9.27;100.00
21574;BME280;10948;48.706;9.258;2023-04-26T00:24:57;97799.75;;;9.19;100.00
21574;BME280;10948;48.706;9.258;2023-04-26T00:27:23;97793.41;;;9.24;100.00
21574;BME280;10948;48.706;9.258;2023-04-26T00:29:48;97791.91;;;9.20;100.00
21574;BME280;10948;48.706;9.258;2023-04-26T00:32:13;97799.25;;;9.12;100.00
21574;BME280;10948;48.706;9.258;2023-04-26T00:34:38;97799.59;;;9.06;100.00
21574;BME280;10948;48.706;9.258;2023-04-26T00:37:04;97795.78;;;8.96;100.00
21574;BME280;10948;48.706;9.258;2023-04-26T00:39:29;97794.03;;;8.97;100.00
21574;BME280;10948;48.706;9.258;2023-04-26T00:41:55;97791.28;;;9.00;100.00
21574;BME280;10948;48.706;9.258;2023-04-26T00:44:20;97789.22;;;9.06;100.00
21574;BME280;10948;48.706;9.258;2023-04-26T00:46:45;97794.06;;;9.12;100.00
21574;BME280;10948;48.706;9.258;2023-04-26T00:49:11;97789.84;;;8.94;100.00
21574;BME280;10948;48.706;9.258;2023-04-26T00:51:38;97791.69;;;8.92;100.00
21574;BME280;10948;48.706;9.258;2023-04-26T00:54:04;97792.28;;;8.82;100.00
21574;BME280;10948;48.706;9.258;2023-04-26T00:56:29;97791.59;;;8.78;100.00
21574;BME280;10948;48.706;9.258;2023-04-26T00:58:54;97805.25;;;8.82;100.00
21574;BME280;10948;48.706;9.258;2023-04-26T01:01:20;97799.06;;;8.84;100.00
21574;BME280;10948;48.706;9.258;2023-04-26T01:03:45;97803.31;;;8.85;100.00
21574;BME280;10948;48.706;9.258;2023-04-26T01:06:11;97809.44;;;8.84;100.00
21574;BME280;10948;48.706;9.258;2023-04-26T01:08:37;97811.25;;;8.82;100.00
21574;BME280;10948;48.706;9.258;2023-04-26T01:11:03;97807.91;;;8.80;100.00
21574;BME280;10948;48.706;9.258;2023-04-26T01:13:28;97805.69;;;8.73;100.00
21574;BME280;10948;48.706;9.258;2023-04-26T01:15:53;97804.25;;;8.84;100.00
21574;BME280;10948;48.706;9.258;2023-04-26T01:18:20;97803.03;;;8.74;100.00
21574;BME280;10948;48.706;9.258;2023-04-26T01:20:45;97797.09;;;8.72;100.00
21574;BME280;10948;48.706;9.258;2023-04-26T01:23:11;97804.53;;;8.63;100.00
21574;BME280;10948;48.706;9.258;2023-04-26T01:25:36;97795.81;;;8.64;100.00
21574;BME280;10948;48.706;9.258;2023-04-26T01:28:01;97798.34;;;8.65;100.00
21574;BME280;10948;48.706;9.258;2023-04-26T01:30:26;97796.97;;;8.58;100.00
21574;BME280;10948;48.706;9.258;2023-04-26T01:32:52;97798.44;;;8.47;100.00
21574;BME280;10948;48.706;9.258;2023-04-26T01:35:17;97795.53;;;8.53;100.00
21574;BME280;10948;48.706;9.258;2023-04-26T01:37:42;97805.88;;;8.37;100.00
21574;BME280;10948;48.706;9.258;2023-04-26T01:40:08;97796.38;;;8.36;100.00
21574;BME280;10948;48.706;9.258;2023-04-26T01:42:33;97796.56;;;8.33;100.00
21574;BME280;10948;48.706;9.258;2023-04-26T01:44:59;97800.66;;;8.20;100.00
21574;BME280;10948;48.706;9.258;2023-04-26T01:47:24;97802.72;;;8.31;100.00
21574;BME280;10948;48.706;9.258;2023-04-26T01:49:50;97800.50;;;8.23;100.00
21574;BME280;10948;48.706;9.258;2023-04-26T01:52:15;97796.75;;;8.12;100.00
21574;BME280;10948;48.706;9.258;2023-04-26T01:54:40;97803.53;;;8.14;100.00
21574;BME280;10948;48.706;9.258;2023-04-26T01:57:06;97805.41;;;7.94;100.00
21574;BME280;10948;48.706;9.258;2023-04-26T01:59:31;97810.41;;;7.98;100.00
21574;BME280;10948;48.706;9.258;2023-04-26T02:01:56;97813.19;;;7.94;100.00
21574;BME280;10948;48.706;9.258;2023-04-26T02:04:21;97804.13;;;7.85;100.00
21574;BME280;10948;48.706;9.258;2023-04-26T02:06:48;97812.66;;;7.87;100.00
21574;BME280;10948;48.706;9.258;2023-04-26T02:09:13;97805.41;;;7.77;100.00
21574;BME280;10948;48.706;9.258;2023-04-26T02:11:38;97806.63;;;7.87;100.00
21574;BME280;10948;48.706;9.258;2023-04-26T02:14:04;97804.88;;;7.87;100.00
21574;BME280;10948;48.706;9.258;2023-04-26T02:16:29;97796.19;;;7.88;100.00
21574;BME280;10948;48.706;9.258;2023-04-26T02:18:55;97796.03;;;7.74;100.00
21574;BME280;10948;48.706;9.258;2023-04-26T02:21:20;97795.41;;;7.69;100.00
21574;BME280;10948;48.706;9.258;2023-04-26T02:23:46;97791.78;;;7.73;100.00
21574;BME280;10948;48.706;9.258;2023-04-26T02:26:11;97798.38;;;7.62;100.00
21574;BME280;10948;48.706;9.258;2023-04-26T02:28:37;97792.19;;;7.47;100.00
21574;BME280;10948;48.706;9.258;2023-04-26T02:31:02;97796.38;;;7.50;100.00
21574;BME280;10948;48.706;9.258;2023-04-26T02:33:28;97797.19;;;7.50;100.00
21574;BME280;10948;48.706;9.258;2023-04-26T02:35:53;97792.25;;;7.46;100.00
21574;BME280;10948;48.706;9.258;2023-04-26T02:38:18;97799.47;;;7.39;100.00
21574;BME280;10948;48.706;9.258;2023-04-26T02:40:43;97792.03;;;7.50;100.00
21574;BME280;10948;48.706;9.258;2023-04-26T02:43:09;97795.69;;;7.46;100.00
21574;BME280;10948;48.706;9.258;2023-04-26T02:45:39;97797.94;;;7.35;100.00
21574;BME280;10948;48.706;9.258;2023-04-26T02:48:04;97798.22;;;7.29;100.00
21574;BME280;10948;48.706;9.258;2023-04-26T02:50:30;97797.09;;;7.35;100.00
21574;BME280;10948;48.706;9.258;2023-04-26T02:52:55;97798.22;;;7.29;100.00
21574;BME280;10948;48.706;9.258;2023-04-26T02:55:20;97804.03;;;7.34;100.00
21574;BME280;10948;48.706;9.258;2023-04-26T02:57:46;97802.00;;;7.22;100.00
21574;BME280;10948;48.706;9.258;2023-04-26T03:00:11;97806.47;;;7.19;100.00
21574;BME280;10948;48.706;9.258;2023-04-26T03:02:37;97803.81;;;7.20;100.00
21574;BME280;10948;48.706;9.258;2023-04-26T03:05:03;97812.22;;;7.25;100.00
21574;BME280;10948;48.706;9.258;2023-04-26T03:07:28;97809.13;;;7.17;100.00
21574;BME280;10948;48.706;9.258;2023-04-26T03:09:54;97809.75;;;7.22;100.00
21574;BME280;10948;48.706;9.258;2023-04-26T03:12:19;97802.63;;;7.27;100.00
21574;BME280;10948;48.706;9.258;2023-04-26T03:14:44;97806.75;;;7.31;100.00
21574;BME280;10948;48.706;9.258;2023-04-26T03:17:10;97802.97;;;7.20;100.00
21574;BME280;10948;48.706;9.258;2023-04-26T03:19:35;97806.88;;;7.28;100.00
21574;BME280;10948;48.706;9.258;2023-04-26T03:22:00;97805.75;;;7.34;100.00
21574;BME280;10948;48.706;9.258;2023-04-26T03:24:25;97803.81;;;7.20;100.00
21574;BME280;10948;48.706;9.258;2023-04-26T03:26:51;97802.16;;;7.19;100.00
21574;BME280;10948;48.706;9.258;2023-04-26T03:29:16;97803.38;;;7.29;100.00
21574;BME280;10948;48.706;9.258;2023-04-26T03:31:41;97806.47;;;7.19;100.00
21574;BME280;10948;48.706;9.258;2023-04-26T03:34:07;97807.44;;;7.16;100.00
21574;BME280;10948;48.706;9.258;2023-04-26T03:36:32;97817.53;;;7.22;100.00
21574;BME280;10948;48.706;9.258;2023-04-26T03:38:58;97804.84;;;7.16;100.00
21574;BME280;10948;48.706;9.258;2023-04-26T03:41:23;97809.56;;;7.08;100.00
21574;BME280;10948;48.706;9.258;2023-04-26T03:43:49;97808.78;;;7.06;100.00
21574;BME280;10948;48.706;9.258;2023-04-26T03:46:14;97802.84;;;7.04;100.00
21574;BME280;10948;48.706;9.258;2023-04-26T03:48:40;97803.56;;;7.08;100.00
21574;BME280;10948;48.706;9.258;2023-04-26T03:51:05;97802.13;;;7.01;100.00
21574;BME280;10948;48.706;9.258;2023-04-26T03:53:31;97796.34;;;6.96;100.00
21574;BME280;10948;48.706;9.258;2023-04-26T03:55:56;97796.69;;;6.88;100.00
21574;BME280;10948;48.706;9.258;2023-04-26T03:58:23;97800.03;;;6.90;100.00
21574;BME280;10948;48.706;9.258;2023-04-26T04:00:49;97805.88;;;6.75;100.00
21574;BME280;10948;48.706;9.258;2023-04-26T04:03:15;97807.19;;;6.85;100.00
21574;BME280;10948;48.706;9.258;2023-04-26T04:05:40;97802.81;;;6.67;100.00
21574;BME280;10948;48.706;9.258;2023-04-26T04:08:06;97804.75;;;6.62;100.00
21574;BME280;10948;48.706;9.258;2023-04-26T04:10:34;97803.94;;;6.62;100.00
21574;BME280;10948;48.706;9.258;2023-04-26T04:13:02;97799.91;;;6.75;100.00
21574;BME280;10948;48.706;9.258;2023-04-26T04:15:27;97799.56;;;6.62;100.00
21574;BME280;10948;48.706;9.258;2023-04-26T04:17:53;97804.31;;;6.53;100.00
21574;BME280;10948;48.706;9.258;2023-04-26T04:20:19;97798.63;;;6.45;100.00
21574;BME280;10948;48.706;9.258;2023-04-26T04:22:45;97806.66;;;6.39;100.00
21574;BME280;10948;48.706;9.258;2023-04-26T04:25:11;97802.19;;;6.42;100.00
21574;BME280;10948;48.706;9.258;2023-04-26T04:27:37;97804.41;;;6.31;100.00
21574;BME280;10948;48.706;9.258;2023-04-26T04:30:04;97809.13;;;6.42;100.00
21574;BME280;10948;48.706;9.258;2023-04-26T04:32:31;97811.84;;;6.57;100.00
21574;BME280;10948;48.706;9.258;2023-04-26T04:34:57;97815.25;;;6.59;100.00
21574;BME280;10948;48.706;9.258;2023-04-26T04:37:22;97811.31;;;6.69;100.00
21574;BME280;10948;48.706;9.258;2023-04-26T04:39:49;97814.72;;;6.71;100.00
21574;BME280;10948;48.706;9.258;2023-04-26T04:42:14;97820.50;;;6.76;100.00
21574;BME280;10948;48.706;9.258;2023-04-26T04:44:40;97821.28;;;6.78;100.00
21574;BME280;10948;48.706;9.258;2023-04-26T04:47:05;97816.81;;;7.00;100.00
21574;BME280;10948;48.706;9.258;2023-04-26T04:49:30;97815.63;;;7.07;100.00
21574;BME280;10948;48.706;9.258;2023-04-26T04:51:55;97815.22;;;7.16;100.00
21574;BME280;10948;48.706;9.258;2023-04-26T04:54:21;97816.28;;;7.12;100.00
21574;BME280;10948;48.706;9.258;2023-04-26T04:56:46;97817.25;;;7.28;100.00
21574;BME280;10948;48.706;9.258;2023-04-26T04:59:12;97822.72;;;7.41;100.00
21574;BME280;10948;48.706;9.258;2023-04-26T05:01:37;97821.56;;;7.46;100.00
21574;BME280;10948;48.706;9.258;2023-04-26T05:04:04;97825.19;;;7.42;100.00
21574;BME280;10948;48.706;9.258;2023-04-26T05:06:31;97831.16;;;7.44;100.00
21574;BME280;10948;48.706;9.258;2023-04-26T05:08:57;97838.22;;;7.59;100.00
21574;BME280;10948;48.706;9.258;2023-04-26T05:11:23;97842.97;;;7.50;100.00
21574;BME280;10948;48.706;9.258;2023-04-26T05:13:48;97843.59;;;7.90;100.00
21574;BME280;10948;48.706;9.258;2023-04-26T05:16:13;97843.16;;;7.99;100.00
21574;BME280;10948;48.706;9.258;2023-04-26T05:18:39;97846.38;;;8.04;100.00
21574;BME280;10948;48.706;9.258;2023-04-26T05:21:04;97856.41;;;8.10;100.00
21574;BME280;10948;48.706;9.258;2023-04-26T05:23:30;97849.00;;;8.21;100.00
21574;BME280;10948;48.706;9.258;2023-04-26T05:25:55;97854.88;;;8.25;100.00
21574;BME280;10948;48.706;9.258;2023-04-26T05:28:21;97853.28;;;8.39;100.00
21574;BME280;10948;48.706;9.258;2023-04-26T05:30:46;97852.50;;;8.54;100.00
21574;BME280;10948;48.706;9.258;2023-04-26T05:33:11;97854.41;;;8.51;100.00
21574;BME280;10948;48.706;9.258;2023-04-26T05:35:37;97854.97;;;8.57;100.00
21574;BME280;10948;48.706;9.258;2023-04-26T05:38:03;97857.56;;;8.57;100.00
21574;BME280;10948;48.706;9.258;2023-04-26T05:40:28;97862.94;;;8.70;100.00
21574;BME280;10948;48.706;9.258;2023-04-26T05:42:53;97848.91;;;8.74;100.00
21574;BME280;10948;48.706;9.258;2023-04-26T05:45:18;97857.50;;;8.91;100.00
21574;BME280;10948;48.706;9.258;2023-04-26T05:47:44;97857.81;;;9.33;100.00
21574;BME280;10948;48.706;9.258;2023-04-26T05:50:11;97866.91;;;9.57;98.83
21574;BME280;10948;48.706;9.258;2023-04-26T05:52:36;97863.28;;;9.44;95.71
21574;BME280;10948;48.706;9.258;2023-04-26T05:55:02;97868.22;;;9.80;96.12
21574;BME280;10948;48.706;9.258;2023-04-26T05:57:28;97862.94;;;9.81;97.70
21574;BME280;10948;48.706;9.258;2023-04-26T05:59:53;97868.22;;;9.80;96.52
21574;BME280;10948;48.706;9.258;2023-04-26T06:02:19;97869.63;;;10.16;96.69
21574;BME280;10948;48.706;9.258;2023-04-26T06:04:44;97864.53;;;10.15;95.98
21574;BME280;10948;48.706;9.258;2023-04-26T06:07:10;97874.53;;;10.36;94.43
21574;BME280;10948;48.706;9.258;2023-04-26T06:09:35;97872.47;;;10.27;94.90
21574;BME280;10948;48.706;9.258;2023-04-26T06:12:01;97875.06;;;10.57;92.53
21574;BME280;10948;48.706;9.258;2023-04-26T06:14:27;97874.06;;;10.59;87.83
21574;BME280;10948;48.706;9.258;2023-04-26T06:16:53;97876.88;;;10.70;87.07
21574;BME280;10948;48.706;9.258;2023-04-26T06:19:18;97877.66;;;11.28;86.34
21574;BME280;10948;48.706;9.258;2023-04-26T06:21:43;97873.75;;;11.77;82.76
21574;BME280;10948;48.706;9.258;2023-04-26T06:24:09;97880.44;;;12.07;80.63
21574;BME280;10948;48.706;9.258;2023-04-26T06:26:34;97874.94;;;12.12;81.89
21574;BME280;10948;48.706;9.258;2023-04-26T06:28:59;97866.72;;;12.18;79.87
21574;BME280;10948;48.706;9.258;2023-04-26T06:31:24;97867.28;;;11.82;80.74
21574;BME280;10948;48.706;9.258;2023-04-26T06:33:49;97875.91;;;12.50;81.25
21574;BME280;10948;48.706;9.258;2023-04-26T06:36:15;97882.63;;;12.66;76.33
21574;BME280;10948;48.706;9.258;2023-04-26T06:38:40;97878.47;;;12.89;74.66
21574;BME280;10948;48.706;9.258;2023-04-26T06:41:05;97882.78;;;13.02;74.42
21574;BME280;10948;48.706;9.258;2023-04-26T06:43:31;97890.72;;;12.62;75.53
21574;BME280;10948;48.706;9.258;2023-04-26T06:45:56;97885.53;;;13.62;71.12
21574;BME280;10948;48.706;9.258;2023-04-26T06:48:21;97884.91;;;13.71;65.40
21574;BME280;10948;48.706;9.258;2023-04-26T06:50:46;97879.34;;;13.39;66.13
21574;BME280;10948;48.706;9.258;2023-04-26T06:53:12;97887.25;;;13.50;65.82
21574;BME280;10948;48.706;9.258;2023-04-26T06:55:37;97889.06;;;13.25;64.82
21574;BME280;10948;48.706;9.258;2023-04-26T06:58:02;97886.81;;;13.69;63.74
21574;BME280;10948;48.706;9.258;2023-04-26T07:00:27;97883.38;;;13.56;63.58
21574;BME280;10948;48.706;9.258;2023-04-26T07:02:54;97872.81;;;14.29;61.32
21574;BME280;10948;48.706;9.258;2023-04-26T07:05:19;97876.47;;;14.27;61.17
21574;BME280;10948;48.706;9.258;2023-04-26T07:07:45;97869.56;;;14.49;60.49
21574;BME280;10948;48.706;9.258;2023-04-26T07:10:10;97870.84;;;14.44;59.14
21574;BME280;10948;48.706;9.258;2023-04-26T07:12:35;97869.22;;;14.54;57.08
21574;BME280;10948;48.706;9.258;2023-04-26T07:15:01;97871.31;;;15.29;55.64
21574;BME280;10948;48.706;9.258;2023-04-26T07:17:26;97863.94;;;15.56;54.02
21574;BME280;10948;48.706;9.258;2023-04-26T07:19:51;97872.47;;;16.02;51.85
21574;BME280;10948;48.706;9.258;2023-04-26T07:22:17;97866.44;;;15.68;51.38
21574;BME280;10948;48.706;9.258;2023-04-26T07:24:42;97870.25;;;15.75;50.96
21574;BME280;10948;48.706;9.258;2023-04-26T07:27:07;97859.50;;;16.43;49.91
21574;BME280;10948;48.706;9.258;2023-04-26T07:29:33;97860.59;;;19.89;44.43
21574;BME280;10948;48.706;9.258;2023-04-26T07:31:58;97857.81;;;18.80;43.29
21574;BME280;10948;48.706;9.258;2023-04-26T07:34:23;97874.28;;;20.99;43.04
21574;BME280;10948;48.706;9.258;2023-04-26T07:36:48;97869.38;;;21.04;43.04
21574;BME280;10948;48.706;9.258;2023-04-26T07:39:14;97861.75;;;22.19;40.59
21574;BME280;10948;48.706;9.258;2023-04-26T07:41:39;97870.66;;;20.65;42.23
21574;BME280;10948;48.706;9.258;2023-04-26T07:44:04;97865.78;;;22.39;41.06
21574;BME280;10948;48.706;9.258;2023-04-26T07:46:31;97864.84;;;23.52;39.59
21574;BME280;10948;48.706;9.258;2023-04-26T07:48:56;97867.50;;;24.37;38.13
21574;BME280;10948;48.706;9.258;2023-04-26T07:51:22;97871.84;;;23.37;37.58
21574;BME280;10948;48.706;9.258;2023-04-26T07:53:47;97868.13;;;22.42;37.71
21574;BME280;10948;48.706;9.258;2023-04-26T07:56:12;97863.84;;;22.65;38.69
21574;BME280;10948;48.706;9.258;2023-04-26T07:58:38;97863.53;;;23.48;36.26
21574;BME280;10948;48.706;9.258;2023-04-26T08:01:04;97866.09;;;22.36;37.98
21574;BME280;10948;48.706;9.258;2023-04-26T08:03:29;97868.03;;;24.63;36.01
21574;BME280;10948;48.706;9.258;2023-04-26T08:05:55;97868.09;;;23.70;36.67
21574;BME280;10948;48.706;9.258;2023-04-26T08:08:21;97864.94;;;26.64;34.13
21574;BME280;10948;48.706;9.258;2023-04-26T08:10:46;97867.97;;;26.75;31.53
21574;BME280;10948;48.706;9.258;2023-04-26T08:13:11;97865.59;;;25.87;31.45
21574;BME280;10948;48.706;9.258;2023-04-26T08:15:37;97864.31;;;26.83;32.21
21574;BME280;10948;48.706;9.258;2023-04-26T08:18:02;97864.66;;;25.36;33.02
21574;BME280;10948;48.706;9.258;2023-04-26T08:20:27;97871.34;;;27.81;31.85
21574;BME280;10948;48.706;9.258;2023-04-26T08:22:56;97880.84;;;27.35;31.31
21574;BME280;10948;48.706;9.258;2023-04-26T08:25:21;97878.63;;;30.11;30.25
21574;BME280;10948;48.706;9.258;2023-04-26T08:27:47;97883.34;;;30.09;28.69
21574;BME280;10948;48.706;9.258;2023-04-26T08:30:12;97885.06;;;29.51;28.83
21574;BME280;10948;48.706;9.258;2023-04-26T08:32:38;97875.13;;;29.00;28.16
21574;BME280;10948;48.706;9.258;2023-04-26T08:35:03;97881.34;;;31.96;28.24
21574;BME280;10948;48.706;9.258;2023-04-26T08:37:29;97875.59;;;30.45;28.96
21574;BME280;10948;48.706;9.258;2023-04-26T08:39:54;97878.03;;;29.70;30.01
21574;BME280;10948;48.706;9.258;2023-04-26T08:42:19;97875.25;;;26.67;31.51
21574;BME280;10948;48.706;9.258;2023-04-26T08:44:47;97874.09;;;27.94;31.73
21574;BME280;10948;48.706;9.258;2023-04-26T08:47:15;97879.16;;;28.70;29.04
21574;BME280;10948;48.706;9.258;2023-04-26T08:49:42;97878.59;;;24.79;33.44
21574;BME280;10948;48.706;9.258;2023-04-26T08:52:11;97879.53;;;24.25;34.27
21574;BME280;10948;48.706;9.258;2023-04-26T08:54:37;97878.19;;;23.20;34.72
21574;BME280;10948;48.706;9.258;2023-04-26T08:57:03;97879.47;;;23.00;36.44
21574;BME280;10948;48.706;9.258;2023-04-26T08:59:35;97879.63;;;22.17;36.60
21574;BME280;10948;48.706;9.258;2023-04-26T09:02:05;97875.94;;;22.44;36.29
21574;BME280;10948;48.706;9.258;2023-04-26T09:04:31;97872.19;;;21.54;37.63
21574;BME280;10948;48.706;9.258;2023-04-26T09:07:00;97878.44;;;22.04;38.02
21574;BME280;10948;48.706;9.258;2023-04-26T09:09:35;97879.75;;;22.57;36.72
21574;BME280;10948;48.706;9.258;2023-04-26T09:12:03;97877.84;;;21.84;38.25
21574;BME280;10948;48.706;9.258;2023-04-26T09:14:29;97873.84;;;22.87;37.80
21574;BME280;10948;48.706;9.258;2023-04-26T09:16:54;97873.91;;;21.88;37.63
21574;BME280;10948;48.706;9.258;2023-04-26T09:19:37;97874.03;;;21.53;38.26
21574;BME280;10948;48.706;9.258;2023-04-26T09:22:02;97878.31;;;20.06;39.68
21574;BME280;10948;48.706;9.258;2023-04-26T09:24:28;97868.13;;;20.73;39.81
21574;BME280;10948;48.706;9.258;2023-04-26T09:27:02;97865.53;;;21.67;39.47
21574;BME280;10948;48.706;9.258;2023-04-26T09:29:28;97862.56;;;21.78;37.78
21574;BME280;10948;48.706;9.258;2023-04-26T09:31:53;97859.44;;;21.24;38.78
21574;BME280;10948;48.706;9.258;2023-04-26T09:34:18;97854.38;;;21.38;38.61
21574;BME280;10948;48.706;9.258;2023-04-26T09:36:50;97858.63;;;21.31;38.43
21574;BME280;10948;48.706;9.258;2023-04-26T09:39:32;97849.97;;;21.72;37.67
21574;BME280;10948;48.706;9.258;2023-04-26T09:41:59;97852.31;;;21.24;38.05
21574;BME280;10948;48.706;9.258;2023-04-26T09:44:25;97851.66;;;21.22;38.23
21574;BME280;10948;48.706;9.258;2023-04-26T09:47:00;97851.03;;;20.50;39.16
21574;BME280;10948;48.706;9.258;2023-04-26T09:49:27;97841.34;;;21.19;39.22
21574;BME280;10948;48.706;9.258;2023-04-26T09:51:59;97848.53;;;22.27;38.70
21574;BME280;10948;48.706;9.258;2023-04-26T09:54:36;97845.34;;;20.98;38.71
21574;BME280;10948;48.706;9.258;2023-04-26T09:57:01;97848.44;;;21.11;40.00
21574;BME280;10948;48.706;9.258;2023-04-26T09:59:37;97852.44;;;22.07;39.44
21574;BME280;10948;48.706;9.258;2023-04-26T10:02:02;97844.03;;;21.78;39.60
21574;BME280;10948;48.706;9.258;2023-04-26T10:04:28;97848.16;;;21.47;38.95
21574;BME280;10948;48.706;9.258;2023-04-26T10:06:55;97845.66;;;20.95;39.50
21574;BME280;10948;48.706;9.258;2023-04-26T10:09:21;97853.56;;;20.77;40.16
21574;BME280;10948;48.706;9.258;2023-04-26T10:11:46;97851.56;;;20.89;38.98
21574;BME280;10948;48.706;9.258;2023-04-26T10:14:12;97841.72;;;20.99;38.67
21574;BME280;10948;48.706;9.258;2023-04-26T10:16:38;97837.22;;;22.25;38.13
21574;BME280;10948;48.706;9.258;2023-04-26T10:19:05;97835.50;;;22.74;37.18
21574;BME280;10948;48.706;9.258;2023-04-26T10:21:32;97825.97;;;22.31;36.11
21574;BME280;10948;48.706;9.258;2023-04-26T10:24:00;97824.72;;;21.94;37.30
21574;BME280;10948;48.706;9.258;2023-04-26T10:32:14;97833.28;;;23.49;36.88
21574;BME280;10948;48.706;9.258;2023-04-26T10:34:43;97825.50;;;23.94;36.64
21574;BME280;10948;48.706;9.258;2023-04-26T10:39:34;97829.25;;;22.25;36.97
21574;BME280;10948;48.706;9.258;2023-04-26T10:42:20;97825.78;;;22.17;37.67
21574;BME280;10948;48.706;9.258;2023-04-26T10:44:55;97828.63;;;20.97;37.29
21574;BME280;10948;48.706;9.258;2023-04-26T10:47:25;97827.16;;;20.42;37.40
21574;BME280;10948;48.706;9.258;2023-04-26T10:49:51;97820.69;;;19.83;37.39
21574;BME280;10948;48.706;9.258;2023-04-26T10:52:17;97822.31;;;19.93;37.43
21574;BME280;10948;48.706;9.258;2023-04-26T10:54:56;97822.91;;;19.87;38.02
21574;BME280;10948;48.706;9.258;2023-04-26T10:57:22;97828.13;;;19.70;38.34
21574;BME280;10948;48.706;9.258;2023-04-26T11:00:14;97822.50;;;19.19;38.90
21574;BME280;10948;48.706;9.258;2023-04-26T11:05:34;97821.09;;;19.24;39.40
21574;BME280;10948;48.706;9.258;2023-04-26T11:10:38;97818.44;;;19.61;39.45
21574;BME280;10948;48.706;9.258;2023-04-26T11:13:05;97809.84;;;19.86;40.50
21574;BME280;10948;48.706;9.258;2023-04-26T11:15:30;97811.75;;;19.93;39.79
21574;BME280;10948;48.706;9.258;2023-04-26T11:17:56;97814.84;;;19.62;39.26
21574;BME280;10948;48.706;9.258;2023-04-26T11:20:21;97807.00;;;19.70;39.35
21574;BME280;10948;48.706;9.258;2023-04-26T11:22:46;97813.53;;;20.37;40.09
21574;BME280;10948;48.706;9.258;2023-04-26T11:25:12;97805.06;;;21.37;39.26
21574;BME280;10948;48.706;9.258;2023-04-26T11:27:38;97795.69;;;20.74;37.78
21574;BME280;10948;48.706;9.258;2023-04-26T11:30:03;97789.53;;;20.13;38.40
21574;BME280;10948;48.706;9.258;2023-04-26T11:32:29;97788.31;;;20.25;38.34
21574;BME280;10948;48.706;9.258;2023-04-26T11:34:54;97783.19;;;20.84;38.28
21574;BME280;10948;48.706;9.258;2023-04-26T11:37:19;97779.09;;;21.66;38.64
21574;BME280;10948;48.706;9.258;2023-04-26T11:39:45;97772.25;;;22.13;38.02
21574;BME280;10948;48.706;9.258;2023-04-26T11:42:11;97762.03;;;22.74;37.23
21574;BME280;10948;48.706;9.258;2023-04-26T11:44:36;97764.34;;;22.45;37.75
21574;BME280;10948;48.706;9.258;2023-04-26T11:47:02;97765.00;;;22.63;36.49
21574;BME280;10948;48.706;9.258;2023-04-26T11:49:28;97761.66;;;22.21;37.06
21574;BME280;10948;48.706;9.258;2023-04-26T11:51:54;97754.75;;;22.60;37.67
21574;BME280;10948;48.706;9.258;2023-04-26T11:54:30;97757.78;;;21.92;37.99
21574;BME280;10948;48.706;9.258;2023-04-26T11:56:56;97755.38;;;22.70;37.12
21574;BME280;10948;48.706;9.258;2023-04-26T11:59:25;97752.88;;;22.37;37.06
21574;BME280;10948;48.706;9.258;2023-04-26T12:01:50;97759.72;;;22.47;36.73
21574;BME280;10948;48.706;9.258;2023-04-26T12:04:18;97750.94;;;21.73;37.24
21574;BME280;10948;48.706;9.258;2023-04-26T12:06:44;97751.25;;;23.46;36.43
21574;BME280;10948;48.706;9.258;2023-04-26T12:09:10;97747.16;;;23.74;36.08
21574;BME280;10948;48.706;9.258;2023-04-26T12:11:36;97741.50;;;23.69;35.47
21574;BME280;10948;48.706;9.258;2023-04-26T12:14:01;97750.41;;;23.84;35.85
21574;BME280;10948;48.706;9.258;2023-04-26T12:16:26;97743.59;;;23.81;35.44
21574;BME280;10948;48.706;9.258;2023-04-26T12:18:52;97752.66;;;23.26;36.59
21574;BME280;10948;48.706;9.258;2023-04-26T12:21:17;97755.81;;;23.06;35.82
21574;BME280;10948;48.706;9.258;2023-04-26T12:23:42;97751.03;;;22.13;35.59
21574;BME280;10948;48.706;9.258;2023-04-26T12:26:11;97741.81;;;21.76;35.57
21574;BME280;10948;48.706;9.258;2023-04-26T12:28:37;97753.28;;;21.09;35.72
21574;BME280;10948;48.706;9.258;2023-04-26T12:31:02;97755.25;;;21.74;37.12
21574;BME280;10948;48.706;9.258;2023-04-26T12:33:28;97747.03;;;22.01;35.39
21574;BME280;10948;48.706;9.258;2023-04-26T12:35:54;97745.13;;;22.43;35.53
21574;BME280;10948;48.706;9.258;2023-04-26T12:38:21;97738.44;;;22.31;35.24
21574;BME280;10948;48.706;9.258;2023-04-26T12:40:46;97736.13;;;22.28;35.32
21574;BME280;10948;48.706;9.258;2023-04-26T12:43:12;97731.81;;;22.35;35.59
21574;BME280;10948;48.706;9.258;2023-04-26T12:45:37;97730.41;;;20.57;37.93
21574;BME280;10948;48.706;9.258;2023-04-26T12:48:02;97730.72;;;20.97;37.24
21574;BME280;10948;48.706;9.258;2023-04-26T12:50:27;97734.91;;;20.82;36.73
21574;BME280;10948;48.706;9.258;2023-04-26T12:52:53;97726.19;;;21.15;37.07
21574;BME280;10948;48.706;9.258;2023-04-26T12:55:18;97730.75;;;21.05;36.66
21574;BME280;10948;48.706;9.258;2023-04-26T12:57:44;97725.69;;;22.03;36.72
21574;BME280;10948;48.706;9.258;2023-04-26T13:00:10;97721.91;;;20.71;36.11
21574;BME280;10948;48.706;9.258;2023-04-26T13:02:36;97722.66;;;19.24;37.69
21574;BME280;10948;48.706;9.258;2023-04-26T13:05:04;97723.81;;;18.56;38.97
21574;BME280;10948;48.706;9.258;2023-04-26T13:07:31;97720.66;;;19.53;38.62